Time;durP1;ratioP1;P1;durP2;ratioP2;P2;SDS_P1;SDS_P2;PMS_P1;PMS_P2;Temp;Humidity;BMP_temperature;BMP_pressure;BME280_temperature;BME280_humidity;BME280_pressure;Samples;Min_cycle;Max_cycle;Signal;HPM_P1;HPM_P2
2021/06/27 00:00:40;;;;;;;9.07;8.27;;;;;;;20.56;68.74;99262.53;5113153;28;20479;-73
2021/06/27 00:03:08;;;;;;;9.60;8.70;;;;;;;20.58;68.81;99257.75;5113395;28;20437;-73
2021/06/27 00:05:36;;;;;;;8.73;7.90;;;;;;;20.77;68.15;99266.75;5113154;28;20591;-75
2021/06/27 00:08:05;;;;;;;9.77;8.97;;;;;;;20.90;67.30;99260.81;5113415;28;20421;-74
2021/06/27 00:10:34;;;;;;;8.60;7.90;;;;;;;20.81;67.67;99262.66;5113461;28;20445;-74
2021/06/27 00:13:02;;;;;;;8.87;8.07;;;;;;;20.79;67.61;99265.56;5113039;28;20423;-73
2021/06/27 00:15:33;;;;;;;9.43;8.63;;;;;;;20.48;68.98;99265.16;5113190;28;20443;-73
2021/06/27 00:18:01;;;;;;;8.47;7.70;;;;;;;20.54;68.95;99270.00;5113122;28;20771;-73
2021/06/27 00:20:30;;;;;;;8.97;8.00;;;;;;;20.60;68.94;99263.06;5112536;28;20473;-74
2021/06/27 00:22:57;;;;;;;8.77;8.07;;;;;;;20.73;67.71;99270.81;5107001;28;20434;-74
2021/06/27 00:25:28;;;;;;;9.23;8.33;;;;;;;20.47;68.73;99268.91;5100228;28;20818;-75
2021/06/27 00:27:55;;;;;;;9.70;8.70;;;;;;;20.45;68.92;99272.84;5092694;28;20517;-73
2021/06/27 00:30:23;;;;;;;13.40;8.20;;;;;;;20.29;69.72;99273.59;5093447;28;20434;-74
2021/06/27 00:32:50;;;;;;;9.70;8.80;;;;;;;20.42;69.41;99279.50;5088837;28;20426;-74
2021/06/27 00:35:18;;;;;;;8.70;7.80;;;;;;;20.47;68.88;99270.81;5104440;28;20843;-74
2021/06/27 00:37:45;;;;;;;9.00;8.30;;;;;;;20.49;68.93;99274.25;5092578;28;20807;-73
2021/06/27 00:40:15;;;;;;;8.63;7.93;;;;;;;20.31;69.56;99269.66;5092017;28;20493;-74
2021/06/27 00:42:44;;;;;;;9.07;8.20;;;;;;;20.09;70.64;99272.91;5093262;28;20521;-74
2021/06/27 00:45:13;;;;;;;8.90;8.10;;;;;;;20.07;71.20;99267.59;5092110;28;20529;-74
2021/06/27 00:47:42;;;;;;;11.20;8.70;;;;;;;20.07;70.81;99273.06;5100683;28;20473;-74
2021/06/27 00:50:13;;;;;;;10.07;8.40;;;;;;;20.18;70.38;99270.06;5098223;28;20441;-74
2021/06/27 00:52:40;;;;;;;10.65;8.50;;;;;;;20.25;70.09;99261.25;5092119;28;20465;-74
2021/06/27 00:55:08;;;;;;;8.87;8.03;;;;;;;20.00;70.96;99275.56;5104465;28;20192;-74
2021/06/27 00:57:35;;;;;;;9.77;8.77;;;;;;;19.87;71.70;99264.16;5095002;28;20446;-73
2021/06/27 01:00:08;;;;;;;8.80;7.90;;;;;;;19.98;71.40;99266.66;5092294;28;20809;-73
2021/06/27 01:02:34;;;;;;;9.13;8.23;;;;;;;20.07;70.96;99275.78;5108621;28;20521;-74
2021/06/27 01:05:02;;;;;;;8.93;8.02;;;;;;;20.03;70.81;99268.91;5092364;28;21066;-73
2021/06/27 01:07:29;;;;;;;8.83;8.00;;;;;;;19.95;71.16;99277.91;5099072;28;20203;-74
2021/06/27 01:09:55;;;;;;;9.17;8.37;;;;;;;19.91;71.40;99281.13;5092907;28;20457;-73
2021/06/27 01:12:23;;;;;;;8.70;8.00;;;;;;;19.81;71.99;99275.75;5092014;28;20529;-74
2021/06/27 01:14:49;;;;;;;8.80;8.00;;;;;;;19.64;72.63;99276.56;5092318;28;20434;-74
2021/06/27 01:17:18;;;;;;;11.20;8.40;;;;;;;19.70;72.27;99284.16;5092475;28;20859;-74
2021/06/27 01:19:44;;;;;;;11.02;7.40;;;;;;;19.60;72.99;99281.44;5099605;28;20536;-74
2021/06/27 01:22:12;;;;;;;8.85;8.00;;;;;;;19.51;72.94;99285.13;5095764;28;20608;-74
2021/06/27 01:24:39;;;;;;;9.73;8.82;;;;;;;19.48;73.48;99288.16;5110371;28;20195;-74
2021/06/27 01:27:06;;;;;;;10.40;9.20;;;;;;;19.45;73.74;99277.56;5092543;28;20672;-73
2021/06/27 01:29:33;;;;;;;11.02;8.98;;;;;;;19.25;74.58;99274.09;5091783;28;20514;-73
2021/06/27 01:32:00;;;;;;;9.77;8.88;;;;;;;19.24;74.54;99273.19;5091798;28;20281;-75
2021/06/27 01:34:26;;;;;;;8.75;7.95;;;;;;;19.10;75.39;99273.72;5092512;28;20194;-73
2021/06/27 01:36:53;;;;;;;11.15;10.15;;;;;;;19.08;75.87;99262.94;5110307;28;20217;-73
2021/06/27 01:39:21;;;;;;;9.18;8.27;;;;;;;19.09;75.91;99253.78;5111728;28;20282;-73
2021/06/27 01:41:49;;;;;;;9.65;8.40;;;;;;;19.13;75.33;99244.28;5095692;28;20211;-73
2021/06/27 01:44:16;;;;;;;9.23;8.32;;;;;;;19.08;75.57;99232.94;5095515;28;20187;-73
2021/06/27 01:46:43;;;;;;;8.73;7.97;;;;;;;19.13;75.57;99227.03;5096075;28;20199;-75
2021/06/27 01:49:11;;;;;;;9.10;8.20;;;;;;;19.09;75.67;99209.25;5095622;28;20582;-74
2021/06/27 01:51:37;;;;;;;9.43;8.45;;;;;;;19.17;75.76;99195.69;5100844;28;20182;-74
2021/06/27 01:54:05;;;;;;;10.70;8.07;;;;;;;19.29;74.57;99180.81;5104838;28;20202;-74
2021/06/27 01:56:33;;;;;;;8.68;7.88;;;;;;;19.42;73.58;99188.59;5095980;28;20198;-74
2021/06/27 01:59:02;;;;;;;10.65;9.65;;;;;;;19.55;72.50;99193.69;5095838;28;20227;-74
2021/06/27 02:01:31;;;;;;;8.77;7.87;;;;;;;19.64;72.23;99190.00;5095187;28;20223;-74
2021/06/27 02:03:57;;;;;;;8.98;8.25;;;;;;;19.72;71.97;99200.19;5095306;28;20472;-73
2021/06/27 02:06:26;;;;;;;9.50;8.60;;;;;;;19.90;71.15;99203.75;5112380;28;20714;-73
2021/06/27 02:08:54;;;;;;;8.77;7.97;;;;;;;19.96;70.58;99208.56;5110149;28;20476;-73
2021/06/27 02:11:23;;;;;;;8.48;7.68;;;;;;;19.92;70.67;99207.19;5106564;28;20771;-73
2021/06/27 02:13:52;;;;;;;8.60;7.72;;;;;;;19.89;70.88;99198.44;5108435;28;20192;-74
2021/06/27 02:16:19;;;;;;;8.75;7.93;;;;;;;19.75;70.84;99195.25;5095169;28;20196;-74
2021/06/27 02:18:49;;;;;;;12.88;8.75;;;;;;;19.49;71.83;99195.19;5095013;28;20196;-74
2021/06/27 02:21:19;;;;;;;8.50;7.70;;;;;;;19.63;71.71;99199.22;5102555;28;20207;-74
2021/06/27 02:23:46;;;;;;;9.57;8.57;;;;;;;19.62;71.47;99199.38;5108811;28;20516;-74
2021/06/27 02:26:16;;;;;;;9.75;8.50;;;;;;;19.73;70.93;99197.28;5114301;28;20437;-74
2021/06/27 02:28:43;;;;;;;8.88;8.00;;;;;;;19.78;70.87;99211.31;5114830;28;20274;-74
2021/06/27 02:31:12;;;;;;;8.40;7.63;;;;;;;19.54;71.62;99209.22;5105868;28;20227;-73
2021/06/27 02:33:39;;;;;;;8.70;7.97;;;;;;;19.71;71.03;99214.84;5094922;28;20216;-73
2021/06/27 02:36:08;;;;;;;17.05;7.93;;;;;;;19.51;71.97;99211.38;5095062;28;20227;-73
2021/06/27 02:38:35;;;;;;;8.85;8.10;;;;;;;19.25;73.10;99195.78;5095029;28;20633;-73
2021/06/27 02:41:02;;;;;;;9.50;8.60;;;;;;;19.13;73.75;99177.91;5101383;28;20302;-73
2021/06/27 02:43:29;;;;;;;10.15;8.18;;;;;;;19.03;74.82;99166.22;5103675;28;20222;-73
2021/06/27 02:45:55;;;;;;;9.05;8.05;;;;;;;19.04;74.62;99173.38;5094920;28;20332;-73
2021/06/27 02:48:24;;;;;;;8.52;7.72;;;;;;;19.15;74.21;99178.59;5102011;28;20275;-74
2021/06/27 02:50:50;;;;;;;9.48;8.55;;;;;;;19.19;74.01;99187.34;5094353;28;20192;-74
2021/06/27 02:53:17;;;;;;;10.80;8.30;;;;;;;19.25;73.61;99189.47;5102311;28;20197;-74
2021/06/27 02:55:44;;;;;;;9.52;8.43;;;;;;;19.11;74.34;99188.13;5094098;28;20263;-74
2021/06/27 02:58:11;;;;;;;8.57;7.77;;;;;;;19.01;74.75;99176.41;5102338;28;20183;-74
2021/06/27 03:00:38;;;;;;;8.90;8.20;;;;;;;19.00;75.05;99172.00;5104959;28;20570;-74
2021/06/27 03:03:04;;;;;;;8.88;8.18;;;;;;;18.91;75.40;99169.16;5099428;28;20222;-74
2021/06/27 03:05:33;;;;;;;11.65;8.70;;;;;;;18.81;76.03;99175.66;5094141;28;20306;-74
2021/06/27 03:07:59;;;;;;;9.73;8.63;;;;;;;18.70;76.74;99168.50;5095614;28;20230;-74
2021/06/27 03:10:26;;;;;;;9.85;8.95;;;;;;;18.55;77.50;99163.56;5094402;28;20203;-73
2021/06/27 03:12:53;;;;;;;14.10;8.45;;;;;;;18.64;77.34;99158.22;5097862;28;20219;-74
2021/06/27 03:15:21;;;;;;;9.35;8.50;;;;;;;18.83;76.40;99166.31;5114483;28;20629;-73
2021/06/27 03:17:49;;;;;;;8.98;8.18;;;;;;;18.94;75.78;99165.25;5085961;28;20190;-73
2021/06/27 03:20:17;;;;;;;10.13;9.05;;;;;;;18.92;75.73;99162.69;5094341;28;20283;-73
2021/06/27 03:22:46;;;;;;;10.52;9.43;;;;;;;18.89;75.58;99164.88;5093785;28;20196;-74
2021/06/27 03:25:15;;;;;;;9.68;8.70;;;;;;;18.74;76.46;99162.59;5101969;28;20198;-73
2021/06/27 03:27:42;;;;;;;9.93;8.93;;;;;;;18.75;76.53;99158.88;5096013;28;20199;-73
2021/06/27 03:30:09;;;;;;;9.70;8.80;;;;;;;18.77;76.53;99156.03;5099750;28;20270;-73
2021/06/27 03:32:37;;;;;;;10.43;8.57;;;;;;;18.91;75.75;99155.53;5093653;28;20199;-74
2021/06/27 03:35:06;;;;;;;8.95;8.15;;;;;;;18.90;75.66;99156.53;5093421;28;20244;-74
2021/06/27 03:37:33;;;;;;;10.50;8.20;;;;;;;18.92;75.73;99154.50;5093605;28;20192;-74
2021/06/27 03:40:01;;;;;;;9.45;8.65;;;;;;;18.95;75.43;99154.19;5101766;28;20521;-74
2021/06/27 03:42:28;;;;;;;10.07;9.07;;;;;;;19.01;75.08;99162.78;5093439;28;20210;-75
2021/06/27 03:44:55;;;;;;;9.65;8.70;;;;;;;18.92;75.62;99159.94;5096687;28;20190;-73
2021/06/27 03:47:23;;;;;;;10.95;8.60;;;;;;;18.95;75.66;99158.81;5113323;28;20277;-73
2021/06/27 03:49:50;;;;;;;9.88;9.00;;;;;;;18.86;76.15;99160.59;5113088;28;20213;-73
2021/06/27 03:52:16;;;;;;;8.90;8.10;;;;;;;18.64;77.11;99169.13;5098717;28;20187;-72
2021/06/27 03:54:43;;;;;;;9.32;8.45;;;;;;;18.74;76.91;99165.31;5093389;28;20249;-74
2021/06/27 03:57:11;;;;;;;10.43;9.10;;;;;;;18.81;76.45;99167.50;5093147;28;20339;-74
2021/06/27 03:59:38;;;;;;;10.27;9.35;;;;;;;18.98;76.12;99154.91;5099727;28;20191;-73
2021/06/27 04:02:04;;;;;;;9.50;8.55;;;;;;;19.01;75.71;99162.78;5100958;28;20204;-74
2021/06/27 04:04:31;;;;;;;13.10;9.27;;;;;;;19.11;74.89;99169.91;5093116;28;20588;-74
2021/06/27 04:06:58;;;;;;;10.02;9.02;;;;;;;19.23;74.58;99167.78;5095275;28;20275;-74
2021/06/27 04:09:24;;;;;;;9.30;8.50;;;;;;;19.09;75.03;99171.06;5097948;28;20195;-73
2021/06/27 04:11:51;;;;;;;10.23;9.20;;;;;;;19.16;75.17;99166.69;5102525;28;20204;-73
2021/06/27 04:14:19;;;;;;;10.05;9.15;;;;;;;19.19;74.60;99162.81;5107483;28;20275;-74
2021/06/27 04:16:45;;;;;;;10.10;9.20;;;;;;;19.05;75.25;99162.31;5100658;28;20613;-74
2021/06/27 04:19:12;;;;;;;9.23;8.43;;;;;;;19.11;75.09;99155.41;5107617;28;20198;-74
2021/06/27 04:21:39;;;;;;;9.95;8.95;;;;;;;19.16;74.85;99159.38;5092636;28;20218;-72
2021/06/27 04:24:06;;;;;;;10.20;9.20;;;;;;;19.13;75.23;99167.00;5093002;28;20191;-74
2021/06/27 04:26:33;;;;;;;9.63;8.73;;;;;;;19.17;75.26;99152.03;5093044;28;20288;-74
2021/06/27 04:28:59;;;;;;;10.18;9.18;;;;;;;19.27;74.47;99160.16;5093218;28;20210;-73
2021/06/27 04:31:27;;;;;;;9.45;8.65;;;;;;;19.38;74.19;99151.75;5092881;28;20233;-73
2021/06/27 04:33:54;;;;;;;9.90;9.02;;;;;;;19.52;73.62;99162.09;5093076;28;20194;-73
2021/06/27 04:36:20;;;;;;;9.87;8.87;;;;;;;19.67;72.72;99175.19;5092536;28;20215;-74
2021/06/27 04:38:47;;;;;;;21.23;9.15;;;;;;;19.67;73.02;99170.59;5093258;28;20663;-74
2021/06/27 04:41:14;;;;;;;9.50;8.60;;;;;;;19.95;71.87;99167.78;5092761;28;20305;-73
2021/06/27 04:43:41;;;;;;;10.97;10.07;;;;;;;19.91;71.85;99161.75;5092702;28;20521;-73
2021/06/27 04:46:08;;;;;;;9.40;8.57;;;;;;;20.11;70.58;99170.59;5092700;28;20935;-73
2021/06/27 04:48:38;;;;;;;11.00;8.90;;;;;;;20.07;70.77;99171.09;5092898;28;20426;-73
2021/06/27 04:51:05;;;;;;;10.00;9.10;;;;;;;20.14;70.55;99173.00;5092357;28;20448;-74
2021/06/27 04:53:31;;;;;;;12.30;9.87;;;;;;;19.72;72.76;99175.63;5092912;28;20432;-74
2021/06/27 04:55:59;;;;;;;9.45;8.32;;;;;;;19.62;73.13;99172.94;5092615;28;20442;-74
2021/06/27 04:58:26;;;;;;;9.60;8.70;;;;;;;19.51;73.77;99170.44;5104232;28;20179;-73
2021/06/27 05:00:52;;;;;;;9.90;8.90;;;;;;;19.32;74.69;99166.84;5097427;28;20219;-73
2021/06/27 05:03:19;;;;;;;13.95;10.05;;;;;;;19.48;74.28;99168.03;5093534;28;20604;-73
2021/06/27 05:05:47;;;;;;;10.63;9.15;;;;;;;19.56;73.98;99162.66;5092906;28;20198;-73
2021/06/27 05:08:14;;;;;;;14.65;9.45;;;;;;;19.35;74.97;99161.06;5092652;28;20279;-72
2021/06/27 05:10:41;;;;;;;10.43;9.52;;;;;;;19.19;75.72;99157.34;5096612;28;20660;-73
2021/06/27 05:13:08;;;;;;;10.10;8.80;;;;;;;19.14;76.17;99155.94;5103289;28;20183;-74
2021/06/27 05:15:35;;;;;;;10.18;9.27;;;;;;;19.24;75.98;99150.38;5096083;28;20640;-74
2021/06/27 05:18:01;;;;;;;10.23;9.27;;;;;;;19.30;75.68;99151.66;5096362;28;20200;-74
2021/06/27 05:20:28;;;;;;;9.95;9.05;;;;;;;19.50;74.60;99153.19;5092905;28;20289;-74
2021/06/27 05:22:56;;;;;;;9.75;8.85;;;;;;;19.52;74.54;99156.63;5092796;28;20203;-74
2021/06/27 05:25:22;;;;;;;9.70;8.70;;;;;;;19.38;75.36;99157.19;5093991;28;20623;-74
2021/06/27 05:27:49;;;;;;;9.57;8.75;;;;;;;19.44;75.25;99150.25;5107623;28;20198;-72
2021/06/27 05:30:16;;;;;;;10.30;9.40;;;;;;;19.47;74.91;99159.00;5100480;28;20187;-76
2021/06/27 05:32:43;;;;;;;10.82;9.82;;;;;;;19.56;74.54;99152.59;5100839;28;20297;-75
2021/06/27 05:35:10;;;;;;;9.95;9.05;;;;;;;19.67;74.31;99151.50;5100836;28;20183;-74
2021/06/27 05:37:36;;;;;;;10.02;9.13;;;;;;;19.92;73.18;99148.94;5112937;28;20645;-74
2021/06/27 05:40:06;;;;;;;9.30;8.50;;;;;;;20.12;71.88;99152.31;5113179;28;20195;-74
2021/06/27 05:42:32;;;;;;;11.13;10.13;;;;;;;20.37;71.20;99150.59;5113367;28;21073;-73
2021/06/27 05:44:59;;;;;;;10.20;9.20;;;;;;;20.48;70.21;99146.72;5113301;28;20425;-73
2021/06/27 05:47:25;;;;;;;9.93;8.83;;;;;;;20.36;70.59;99144.28;5113171;28;20478;-74
2021/06/27 05:49:52;;;;;;;9.30;8.50;;;;;;;20.35;71.27;99150.78;5113103;28;20422;-74
2021/06/27 05:52:19;;;;;;;9.50;8.70;;;;;;;20.29;71.15;99139.63;5113031;28;20855;-74
2021/06/27 05:54:45;;;;;;;11.60;9.37;;;;;;;20.38;70.94;99153.16;5112893;28;20416;-74
2021/06/27 05:57:13;;;;;;;10.53;8.70;;;;;;;20.39;70.92;99151.28;5112897;28;20515;-74
2021/06/27 05:59:40;;;;;;;10.60;9.00;;;;;;;20.23;71.63;99153.94;5112938;28;20465;-73
2021/06/27 06:02:06;;;;;;;9.40;8.57;;;;;;;20.20;72.15;99155.97;5112644;28;20465;-74
2021/06/27 06:04:33;;;;;;;9.40;8.50;;;;;;;20.18;72.05;99151.69;5112330;28;20559;-74
2021/06/27 06:06:59;;;;;;;9.40;8.53;;;;;;;20.12;72.48;99158.63;5113102;28;20444;-74
2021/06/27 06:09:26;;;;;;;9.47;8.63;;;;;;;20.45;71.27;99152.53;5112639;28;20531;-73
2021/06/27 06:11:53;;;;;;;8.80;7.90;;;;;;;20.51;71.00;99151.84;5112847;28;20845;-73
2021/06/27 06:14:21;;;;;;;9.80;8.47;;;;;;;20.54;70.69;99154.28;5112127;28;20428;-74
2021/06/27 06:16:48;;;;;;;10.20;8.80;;;;;;;20.76;70.16;99147.41;5112665;28;20540;-73
2021/06/27 06:19:18;;;;;;;9.90;9.00;;;;;;;20.91;69.44;99153.06;5112603;28;20478;-73
2021/06/27 06:21:45;;;;;;;9.50;8.60;;;;;;;21.17;68.59;99155.72;5113101;28;20496;-73
2021/06/27 06:24:11;;;;;;;9.17;8.27;;;;;;;21.22;68.16;99150.59;5116523;28;20503;-73
2021/06/27 06:26:38;;;;;;;9.33;8.40;;;;;;;21.30;68.10;99158.81;5116014;28;20464;-73
2021/06/27 06:29:05;;;;;;;9.83;8.93;;;;;;;21.69;66.83;99157.34;5115819;27;20427;-73
2021/06/27 06:31:33;;;;;;;8.83;8.13;;;;;;;22.00;65.62;99155.63;5115870;28;20429;-72
2021/06/27 06:34:00;;;;;;;9.90;9.00;;;;;;;22.31;64.09;99165.84;5115786;28;20520;-73
2021/06/27 06:36:26;;;;;;;13.00;8.03;;;;;;;22.57;62.94;99154.66;5115989;28;20430;-74
2021/06/27 06:38:53;;;;;;;9.07;8.17;;;;;;;22.91;62.13;99156.22;5115836;28;20529;-74
2021/06/27 06:41:20;;;;;;;9.00;8.00;;;;;;;22.94;61.72;99155.00;5115850;28;20839;-73
2021/06/27 06:43:47;;;;;;;9.10;8.30;;;;;;;23.41;60.26;99159.56;5115957;28;20954;-73
2021/06/27 06:46:13;;;;;;;8.87;8.00;;;;;;;23.43;59.80;99169.31;5115958;28;20428;-74
2021/06/27 06:48:41;;;;;;;8.50;7.73;;;;;;;23.55;59.55;99169.75;5115824;28;20791;-72
2021/06/27 06:51:08;;;;;;;8.67;7.87;;;;;;;23.68;59.28;99172.72;5116078;28;20840;-74
2021/06/27 06:53:34;;;;;;;9.10;8.30;;;;;;;24.13;58.11;99178.41;5115427;28;20507;-73
2021/06/27 06:56:01;;;;;;;9.43;8.60;;;;;;;24.34;56.53;99178.50;5115850;28;20884;-74
2021/06/27 06:58:29;;;;;;;8.97;8.07;;;;;;;24.20;57.20;99176.59;5115247;28;20476;-74
2021/06/27 07:00:56;;;;;;;8.63;7.83;;;;;;;24.50;56.22;99185.75;5115306;28;20478;-74
2021/06/27 07:03:23;;;;;;;8.70;7.90;;;;;;;24.25;57.14;99178.78;5115675;28;20574;-74
2021/06/27 07:05:51;;;;;;;8.70;7.90;;;;;;;23.91;58.13;99172.72;5115819;27;20825;-74
2021/06/27 07:08:18;;;;;;;8.77;8.00;;;;;;;24.07;58.20;99179.13;5115100;28;20421;-74
2021/06/27 07:10:44;;;;;;;8.57;7.83;;;;;;;24.46;56.71;99178.88;5115604;28;20760;-74
2021/06/27 07:13:11;;;;;;;8.80;7.93;;;;;;;24.81;55.80;99168.19;5115135;28;20498;-73
2021/06/27 07:15:38;;;;;;;10.10;7.80;;;;;;;25.08;54.70;99165.78;5115558;28;20412;-74
2021/06/27 07:18:05;;;;;;;8.60;7.80;;;;;;;25.05;54.51;99177.16;5114995;28;20536;-73
2021/06/27 07:20:31;;;;;;;9.20;8.20;;;;;;;25.12;54.45;99172.59;5115456;28;20429;-74
2021/06/27 07:22:59;;;;;;;10.63;7.53;;;;;;;25.29;54.17;99170.50;5114925;28;20461;-73
2021/06/27 07:25:26;;;;;;;7.90;7.20;;;;;;;25.46;53.72;99171.97;5115308;28;20463;-74
2021/06/27 07:27:52;;;;;;;7.33;6.73;;;;;;;25.69;52.96;99168.16;5115230;28;20422;-74
2021/06/27 07:30:20;;;;;;;7.70;7.00;;;;;;;25.42;53.86;99156.88;5114910;28;20429;-73
2021/06/27 07:32:46;;;;;;;7.80;7.10;;;;;;;25.79;52.78;99158.50;5115090;28;20775;-73
2021/06/27 07:35:14;;;;;;;9.33;6.97;;;;;;;26.32;51.52;99154.47;5115096;28;20887;-74
2021/06/27 07:37:40;;;;;;;7.43;6.80;;;;;;;26.57;50.93;99132.78;5115234;28;20472;-74
2021/06/27 07:40:10;;;;;;;8.37;6.80;;;;;;;26.47;50.86;99132.31;5114464;28;20494;-74
2021/06/27 07:42:37;;;;;;;7.80;6.97;;;;;;;26.63;50.09;99134.75;5114862;28;20499;-74
2021/06/27 07:45:04;;;;;;;7.23;6.20;;;;;;;27.23;49.10;99129.50;5114743;28;20457;-74
2021/06/27 07:47:31;;;;;;;7.77;7.07;;;;;;;27.27;48.58;99141.81;5114827;28;20497;-73
2021/06/27 07:49:57;;;;;;;8.70;8.00;;;;;;;27.30;48.95;99132.28;5114923;28;20489;-73
2021/06/27 07:52:24;;;;;;;8.87;7.00;;;;;;;27.31;49.57;99114.63;5114703;28;20417;-74
2021/06/27 07:54:50;;;;;;;7.03;6.50;;;;;;;27.29;48.18;99111.22;5114742;28;20798;-75
2021/06/27 07:57:19;;;;;;;7.13;6.53;;;;;;;26.90;49.71;99121.06;5114941;28;20424;-75
2021/06/27 07:59:45;;;;;;;8.37;7.60;;;;;;;26.86;50.61;99128.06;5113984;28;20441;-74
2021/06/27 08:02:12;;;;;;;6.80;6.20;;;;;;;27.26;49.95;99142.06;5113934;28;20581;-74
2021/06/27 08:04:38;;;;;;;8.13;7.43;;;;;;;26.71;50.99;99153.06;5113876;28;20464;-73
2021/06/27 08:07:05;;;;;;;8.00;7.30;;;;;;;26.44;52.34;99158.41;5114257;28;20847;-74
2021/06/27 08:09:32;;;;;;;7.07;6.40;;;;;;;27.12;49.82;99154.94;5114415;28;20532;-74
2021/06/27 08:11:59;;;;;;;8.00;7.30;;;;;;;27.32;49.59;99146.75;5113978;28;20465;-72
2021/06/27 08:14:29;;;;;;;7.60;6.90;;;;;;;27.20;49.53;99139.06;5114011;28;20483;-74
2021/06/27 08:16:56;;;;;;;8.13;7.43;;;;;;;27.43;49.27;99140.63;5114099;28;20429;-74
2021/06/27 08:19:22;;;;;;;7.33;6.73;;;;;;;27.27;49.38;99136.28;5113673;28;20447;-73
2021/06/27 08:21:49;;;;;;;7.10;6.53;;;;;;;27.49;48.79;99136.16;5113675;28;20475;-73
2021/06/27 08:24:16;;;;;;;7.10;6.40;;;;;;;27.27;49.27;99119.72;5113527;28;20487;-74
2021/06/27 08:26:42;;;;;;;8.00;7.30;;;;;;;27.10;50.27;99122.00;5114167;28;20527;-74
2021/06/27 08:29:09;;;;;;;7.70;7.10;;;;;;;27.22;49.69;99122.25;5114096;28;20516;-73
2021/06/27 08:31:37;;;;;;;7.47;6.87;;;;;;;27.21;49.71;99121.41;5113846;28;20425;-74
2021/06/27 08:34:04;;;;;;;6.70;6.10;;;;;;;27.16;49.58;99112.88;5114089;28;20437;-74
2021/06/27 08:36:30;;;;;;;7.60;6.80;;;;;;;26.98;50.30;99109.84;5113714;28;20421;-73
2021/06/27 08:38:57;;;;;;;7.67;7.07;;;;;;;27.03;50.32;99108.16;5113434;28;20507;-74
2021/06/27 08:41:23;;;;;;;6.70;6.10;;;;;;;27.09;49.90;99106.50;5113789;28;20428;-74
2021/06/27 08:43:50;;;;;;;7.30;6.73;;;;;;;27.43;49.47;99108.28;5113417;28;20519;-74
2021/06/27 08:46:17;;;;;;;8.23;7.53;;;;;;;27.55;49.58;99110.44;5113047;28;20421;-74
2021/06/27 08:48:45;;;;;;;7.40;6.80;;;;;;;27.90;47.98;99099.19;5113669;28;20786;-73
2021/06/27 08:51:12;;;;;;;9.40;8.60;;;;;;;27.98;48.35;99102.59;5113280;28;20440;-74
2021/06/27 08:53:41;;;;;;;7.43;6.83;;;;;;;27.85;49.61;99106.19;5113377;28;20424;-74
2021/06/27 08:56:09;;;;;;;8.40;7.60;;;;;;;27.96;47.88;99101.09;5105653;28;20521;-73
2021/06/27 08:58:37;;;;;;;7.20;6.60;;;;;;;28.11;47.77;99100.84;5099496;28;20437;-73
2021/06/27 09:01:05;;;;;;;6.27;5.80;;;;;;;28.13;47.86;99098.72;5105803;28;20965;-74
2021/06/27 09:03:32;;;;;;;6.87;6.30;;;;;;;28.13;47.45;99105.13;5098696;28;20489;-74
2021/06/27 09:06:00;;;;;;;6.70;6.20;;;;;;;28.21;47.20;99106.81;5093713;28;20855;-73
2021/06/27 09:08:27;;;;;;;6.47;5.87;;;;;;;28.53;46.68;99110.59;5101882;28;20536;-76
2021/06/27 09:10:54;;;;;;;7.17;6.53;;;;;;;28.81;46.68;99118.63;5093204;28;20445;-74
2021/06/27 09:13:38;;;;;;;7.67;6.87;;;;;;;29.01;45.94;99115.75;5094405;28;20990;-73
2021/06/27 09:16:18;;;;;;;7.47;6.77;;;;;;;29.47;45.08;99111.88;5107857;28;20932;-73
2021/06/27 09:18:45;;;;;;;6.80;6.30;;;;;;;29.44;45.05;99105.91;5092826;28;20430;-74
2021/06/27 09:21:13;;;;;;;10.50;9.50;;;;;;;29.35;45.67;99102.56;5092775;28;20468;-74
2021/06/27 09:23:42;;;;;;;7.93;7.20;;;;;;;28.68;47.26;99102.03;5100347;28;20978;-74
2021/06/27 09:26:14;;;;;;;7.83;7.23;;;;;;;28.24;48.29;99098.94;5092293;28;20438;-73
2021/06/27 09:28:46;;;;;;;7.50;6.80;;;;;;;28.09;48.96;99105.78;5096770;28;20445;-73
2021/06/27 09:31:39;;;;;;;8.70;7.80;;;;;;;28.66;47.24;99109.72;5099657;28;20470;-73
2021/06/27 09:34:08;;;;;;;6.87;6.37;;;;;;;29.07;45.95;99112.09;5092317;28;20804;-74
2021/06/27 09:36:38;;;;;;;6.37;5.77;;;;;;;29.19;45.25;99103.94;5093188;28;20474;-74
2021/06/27 09:39:10;;;;;;;6.57;6.07;;;;;;;28.53;46.74;99104.22;5098435;28;20916;-74
2021/06/27 09:41:47;;;;;;;6.57;5.97;;;;;;;28.40;47.47;99091.22;5092547;28;20479;-74
2021/06/27 09:44:15;;;;;;;7.70;7.03;;;;;;;28.31;48.02;99096.13;5103099;28;20461;-73
2021/06/27 09:46:46;;;;;;;7.47;6.77;;;;;;;28.50;47.81;99085.28;5112077;28;20445;-73
2021/06/27 09:49:14;;;;;;;8.33;7.60;;;;;;;28.91;46.38;99090.44;5098099;28;20438;-74
2021/06/27 09:51:49;;;;;;;6.47;5.87;;;;;;;28.71;45.90;99092.44;5099718;28;20959;-73
2021/06/27 09:54:18;;;;;;;6.47;5.97;;;;;;;28.61;46.42;99090.16;5091633;28;20423;-74
2021/06/27 09:56:45;;;;;;;6.30;5.80;;;;;;;28.68;46.84;99088.19;5095201;28;20992;-74
2021/06/27 09:59:13;;;;;;;5.90;5.40;;;;;;;28.57;45.52;99091.66;5115453;28;20903;-74
2021/06/27 10:01:42;;;;;;;5.40;5.00;;;;;;;28.60;45.25;99083.72;5114425;28;20479;-72
2021/06/27 10:04:10;;;;;;;5.50;5.10;;;;;;;28.84;44.54;99098.78;5087384;28;21051;-72
2021/06/27 10:06:50;;;;;;;5.50;4.93;;;;;;;29.52;42.75;99098.19;5096306;28;20433;-74
2021/06/27 10:09:20;;;;;;;5.53;5.03;;;;;;;29.60;42.22;99102.63;5095820;28;20856;-74
2021/06/27 10:12:03;;;;;;;4.60;4.30;;;;;;;28.94;42.87;99098.28;5095261;28;20445;-72
2021/06/27 10:14:33;;;;;;;5.10;4.70;;;;;;;29.31;42.93;99088.31;5090138;28;20446;-72
2021/06/27 10:17:01;;;;;;;4.90;4.50;;;;;;;29.68;41.83;99094.03;5095436;28;20793;-74
2021/06/27 10:19:29;;;;;;;5.50;4.97;;;;;;;29.52;42.51;99091.78;5100357;28;20853;-73
2021/06/27 10:21:59;;;;;;;5.83;5.33;;;;;;;29.03;43.62;99096.97;5114057;28;20441;-73
2021/06/27 10:24:26;;;;;;;5.80;5.37;;;;;;;28.93;43.88;99093.00;5095064;28;20474;-74
2021/06/27 10:26:53;;;;;;;6.13;5.13;;;;;;;28.64;44.14;99095.22;5102808;28;20447;-74
2021/06/27 10:29:22;;;;;;;5.70;5.10;;;;;;;28.76;43.85;99096.25;5100014;28;20461;-74
2021/06/27 10:31:51;;;;;;;5.83;5.37;;;;;;;28.24;44.94;99087.88;5095555;28;20441;-73
2021/06/27 10:34:18;;;;;;;5.83;5.33;;;;;;;28.54;44.36;99087.41;5103353;28;20427;-74
2021/06/27 10:36:49;;;;;;;5.23;4.83;;;;;;;28.84;43.62;99084.06;5095223;28;20880;-73
2021/06/27 10:39:17;;;;;;;5.37;4.97;;;;;;;28.67;44.17;99083.72;5097486;28;20440;-73
2021/06/27 10:41:54;;;;;;;5.57;5.17;;;;;;;28.75;44.47;99089.00;5100650;28;20473;-73
2021/06/27 10:44:23;;;;;;;5.80;5.30;;;;;;;28.40;44.81;99082.91;5105540;28;20461;-73
2021/06/27 10:46:51;;;;;;;4.70;4.40;;;;;;;28.57;44.46;99081.41;5115161;28;20461;-73
2021/06/27 10:49:54;;;;;;;5.27;4.87;;;;;;;28.99;44.21;99083.78;5114337;28;20472;-73
2021/06/27 10:52:22;;;;;;;5.60;5.20;;;;;;;29.11;44.32;99079.28;5061997;28;20440;-74
2021/06/27 10:55:16;;;;;;;6.07;5.57;;;;;;;29.25;44.02;99080.03;5092015;28;20464;-74
2021/06/27 10:57:58;;;;;;;5.50;5.10;;;;;;;29.34;43.53;99075.94;5088344;28;20423;-73
2021/06/27 11:00:26;;;;;;;5.70;5.20;;;;;;;29.21;44.59;99074.06;5102401;28;20437;-73
2021/06/27 11:02:52;;;;;;;6.07;5.57;;;;;;;29.06;44.61;99074.38;5108604;28;20480;-73
2021/06/27 11:05:45;;;;;;;5.07;4.73;;;;;;;28.77;44.36;99075.78;5105236;28;20462;-73
2021/06/27 11:08:32;;;;;;;5.10;4.70;;;;;;;28.68;44.62;99072.41;5104962;28;20442;-73
2021/06/27 11:11:03;;;;;;;5.03;4.63;;;;;;;28.93;43.92;99076.38;5089462;28;20762;-73
2021/06/27 11:13:30;;;;;;;5.03;4.63;;;;;;;29.12;43.45;99072.66;5095313;28;20518;-74
2021/06/27 11:16:08;;;;;;;6.90;5.60;;;;;;;29.14;43.60;99070.50;5100526;28;20911;-74
2021/06/27 11:18:37;;;;;;;5.50;5.10;;;;;;;29.22;43.96;99073.03;5095566;28;20513;-74
2021/06/27 11:21:21;;;;;;;5.70;5.30;;;;;;;29.04;43.62;99072.91;5094727;28;20466;-74
2021/06/27 11:23:51;;;;;;;6.13;5.60;;;;;;;29.15;43.75;99068.56;5099198;28;20465;-73
2021/06/27 11:26:54;;;;;;;5.70;5.30;;;;;;;28.89;44.61;99059.31;5114018;28;20441;-74
2021/06/27 11:29:45;;;;;;;7.07;6.37;;;;;;;29.19;44.47;99062.38;5091512;28;20479;-74
2021/06/27 11:32:45;;;;;;;5.30;4.90;;;;;;;29.15;43.92;99065.81;5107282;28;20461;-74
2021/06/27 11:35:37;;;;;;;6.37;5.80;;;;;;;29.07;44.37;99059.41;5093881;28;20525;-73
2021/06/27 11:38:05;;;;;;;6.13;5.63;;;;;;;29.02;44.83;99061.19;5095596;28;20488;-73